Time,TemperatureF,DewpointF,PressureIn,WindDirection,WindDirectionDegrees,WindSpeedMPH,WindSpeedGustMPH,Humidity,HourlyPrecipIn,Conditions,Clouds,dailyrainin,SoftwareType,DateUTC
2013-11-20 00:04:00,49.8,27.5,29.06,ESE,113,5.5,8.9,42,0.00,,,0.00,WUHU216HW,2013-11-20 06:04:00,
2013-11-20 00:09:00,49.8,27.5,29.06,SE,135,3.5,8.9,42,0.00,,,0.00,WUHU216HW,2013-11-20 06:09:00,
2013-11-20 00:14:00,49.8,27.5,29.06,ESE,113,0.0,7.3,42,0.00,,,0.00,WUHU216HW,2013-11-20 06:14:00,
2013-11-20 00:19:00,49.8,26.9,29.05,SE,135,0.0,7.3,41,0.00,,,0.00,WUHU216HW,2013-11-20 06:19:00,
2013-11-20 00:24:00,49.8,26.9,29.05,ESE,113,10.2,10.2,41,0.00,,,0.00,WUHU216HW,2013-11-20 06:24:00,
2013-11-20 00:29:00,49.8,26.9,29.05,SE,135,7.3,10.2,41,0.00,,,0.00,WUHU216HW,2013-11-20 06:29:00,
2013-11-20 00:34:00,49.8,26.4,29.05,SE,135,6.4,10.2,40,0.00,,,0.00,WUHU216HW,2013-11-20 06:34:00,
2013-11-20 00:39:00,49.8,26.4,29.04,ESE,113,0.0,7.3,40,0.00,,,0.00,WUHU216HW,2013-11-20 06:39:00,
2013-11-20 00:44:00,49.8,25.7,29.04,SE,135,7.1,7.6,39,0.00,,,0.00,WUHU216HW,2013-11-20 06:44:00,
2013-11-20 00:49:00,49.8,25.7,29.04,SE,135,0.0,7.6,39,0.00,,,0.00,WUHU216HW,2013-11-20 06:49:00,
2013-11-20 00:54:00,49.8,25.7,29.05,SSE,158,6.7,7.1,39,0.00,,,0.00,WUHU216HW,2013-11-20 06:54:00,
2013-11-20 00:59:00,49.8,25.0,29.04,SE,135,0.0,6.7,38,0.00,,,0.00,WUHU216HW,2013-11-20 06:59:00,
2013-11-20 01:04:00,49.8,24.3,29.04,ESE,113,6.7,8.5,37,0.00,,,0.00,WUHU216HW,2013-11-20 07:04:00,
2013-11-20 01:09:00,49.8,25.0,29.05,ESE,113,5.8,8.5,38,0.00,,,0.00,WUHU216HW,2013-11-20 07:09:00,
2013-11-20 01:14:00,50.0,23.8,29.04,SE,135,5.8,8.2,36,0.00,,,0.00,WUHU216HW,2013-11-20 07:14:00,
2013-11-20 01:19:00,50.1,24.0,29.04,SSE,158,11.6,11.6,36,0.00,,,0.00,WUHU216HW,2013-11-20 07:19:00,
2013-11-20 01:24:00,50.1,24.0,29.04,SE,135,6.7,11.6,36,0.00,,,0.00,WUHU216HW,2013-11-20 07:24:00,
2013-11-20 01:29:00,50.1,24.0,29.04,SE,135,7.6,8.9,36,0.00,,,0.00,WUHU216HW,2013-11-20 07:29:00,
2013-11-20 01:34:00,50.1,23.3,29.04,ESE,113,9.3,9.3,35,0.00,,,0.00,WUHU216HW,2013-11-20 07:34:00,
2013-11-20 01:39:00,50.1,23.3,29.03,SSE,158,13.4,13.4,35,0.00,,,0.00,WUHU216HW,2013-11-20 07:39:00,
2013-11-20 01:44:00,50.1,23.3,29.03,ESE,113,12.9,13.4,35,0.00,,,0.00,WUHU216HW,2013-11-20 07:44:00,
2013-11-20 01:49:00,50.1,23.3,29.04,SE,135,4.2,17.4,35,0.00,,,0.00,WUHU216HW,2013-11-20 07:49:00,
2013-11-20 01:54:00,50.1,23.3,29.04,SSE,158,7.3,17.4,35,0.00,,,0.00,WUHU216HW,2013-11-20 07:54:00,
2013-11-20 01:59:00,50.1,23.3,29.04,ESE,113,6.2,9.3,35,0.00,,,0.00,WUHU216HW,2013-11-20 07:59:00,
2013-11-20 02:04:00,50.1,23.3,29.03,ESE,113,6.4,8.2,35,0.00,,,0.00,WUHU216HW,2013-11-20 08:04:00,
2013-11-20 02:09:00,49.8,23.0,29.03,SE,135,0.0,8.2,35,0.00,,,0.00,WUHU216HW,2013-11-20 08:09:00,
2013-11-20 02:14:00,49.8,23.0,29.04,SE,135,8.9,8.9,35,0.00,,,0.00,WUHU216HW,2013-11-20 08:14:00,
2013-11-20 02:19:00,49.8,23.0,29.03,SE,135,6.7,10.5,35,0.00,,,0.00,WUHU216HW,2013-11-20 08:19:00,
2013-11-20 02:25:00,49.8,23.0,29.03,SE,135,10.0,10.5,35,0.00,,,0.00,WUHU216HW,2013-11-20 08:25:00,
2013-11-20 02:30:00,49.8,23.0,29.02,SE,135,8.2,11.6,35,0.00,,,0.00,WUHU216HW,2013-11-20 08:30:00,
2013-11-20 02:35:00,49.8,23.0,29.02,East,90,12.0,17.0,35,0.00,,,0.00,WUHU216HW,2013-11-20 08:35:00,
2013-11-20 02:40:00,49.8,23.0,29.02,ENE,68,6.7,17.0,35,0.00,,,0.00,WUHU216HW,2013-11-20 08:40:00,
2013-11-20 02:45:00,49.8,23.0,29.02,SSE,158,13.1,13.1,35,0.00,,,0.00,WUHU216HW,2013-11-20 08:45:00,
2013-11-20 02:50:00,49.6,22.8,29.02,SSE,158,11.6,13.1,35,0.00,,,0.00,WUHU216HW,2013-11-20 08:50:00,
2013-11-20 02:55:00,49.6,22.8,29.02,SE,135,8.9,14.7,35,0.00,,,0.00,WUHU216HW,2013-11-20 08:55:00,
2013-11-20 03:01:00,49.8,22.3,29.02,SE,135,6.7,14.7,34,0.00,,,0.00,WUHU216HW,2013-11-20 09:01:00,
2013-11-20 03:06:00,49.8,22.3,29.01,SSE,158,10.9,11.6,34,0.00,,,0.00,WUHU216HW,2013-11-20 09:06:00,
2013-11-20 03:11:00,49.8,22.3,29.02,SE,135,9.3,11.6,34,0.00,,,0.00,WUHU216HW,2013-11-20 09:11:00,
2013-11-20 03:16:00,49.8,22.3,29.01,SE,135,7.1,9.3,34,0.00,,,0.00,WUHU216HW,2013-11-20 09:16:00,
2013-11-20 03:21:00,49.6,22.1,29.01,SE,135,11.8,11.8,34,0.00,,,0.00,WUHU216HW,2013-11-20 09:21:00,
2013-11-20 03:26:00,49.6,22.1,29.01,SE,135,8.9,11.8,34,0.00,,,0.00,WUHU216HW,2013-11-20 09:26:00,
2013-11-20 03:31:00,49.6,22.1,29.01,SSE,158,3.3,8.9,34,0.00,,,0.00,WUHU216HW,2013-11-20 09:31:00,
2013-11-20 03:36:00,49.6,22.1,29.00,SE,135,9.8,9.8,34,0.00,,,0.00,WUHU216HW,2013-11-20 09:36:00,
2013-11-20 03:42:00,49.4,22.0,29.00,SE,135,9.6,9.8,34,0.00,,,0.00,WUHU216HW,2013-11-20 09:42:00,
2013-11-20 03:47:00,49.4,22.0,29.00,SE,135,8.2,9.6,34,0.00,,,0.00,WUHU216HW,2013-11-20 09:47:00,
2013-11-20 03:52:00,49.2,21.8,28.99,SE,135,5.3,8.2,34,0.00,,,0.00,WUHU216HW,2013-11-20 09:52:00,
2013-11-20 03:57:00,49.2,21.8,29.00,SE,135,7.6,13.8,34,0.00,,,0.00,WUHU216HW,2013-11-20 09:57:00,
2013-11-20 04:02:00,49.2,21.8,29.00,SSE,158,7.3,13.8,34,0.00,,,0.00,WUHU216HW,2013-11-20 10:02:00,
2013-11-20 04:07:00,49.1,22.4,28.99,SSE,158,8.7,8.7,35,0.00,,,0.00,WUHU216HW,2013-11-20 10:07:00,
2013-11-20 04:12:00,49.1,22.4,28.99,SE,135,10.5,10.5,35,0.00,,,0.00,WUHU216HW,2013-11-20 10:12:00,
2013-11-20 04:17:00,49.1,22.4,28.99,SSE,158,7.6,10.7,35,0.00,,,0.00,WUHU216HW,2013-11-20 10:17:00,
2013-11-20 04:22:00,49.1,21.7,28.98,SSE,158,9.3,10.7,34,0.00,,,0.00,WUHU216HW,2013-11-20 10:22:00,
2013-11-20 04:27:00,48.9,22.2,28.99,SE,135,7.1,10.5,35,0.00,,,0.00,WUHU216HW,2013-11-20 10:27:00,
2013-11-20 04:32:00,48.7,22.1,28.99,SSE,158,10.5,10.5,35,0.00,,,0.00,WUHU216HW,2013-11-20 10:32:00,
2013-11-20 04:37:00,48.3,21.7,28.99,SE,135,8.0,10.5,35,0.00,,,0.00,WUHU216HW,2013-11-20 10:37:00,
2013-11-20 04:42:00,48.2,21.6,28.99,SE,135,11.1,18.5,35,0.00,,,0.00,WUHU216HW,2013-11-20 10:42:00,
2013-11-20 04:48:00,48.0,22.1,28.98,ESE,113,2.4,18.5,36,0.00,,,0.00,WUHU216HW,2013-11-20 10:48:00,
2013-11-20 04:53:00,48.0,22.1,28.98,ESE,113,7.3,11.6,36,0.00,,,0.00,WUHU216HW,2013-11-20 10:53:00,
2013-11-20 04:58:00,47.8,21.9,28.98,SE,135,6.7,10.9,36,0.00,,,0.00,WUHU216HW,2013-11-20 10:58:00,
2013-11-20 05:03:00,47.8,21.9,28.98,SE,135,6.4,13.8,36,0.00,,,0.00,WUHU216HW,2013-11-20 11:03:00,
2013-11-20 05:08:00,47.8,21.9,28.98,SE,135,6.7,15.2,36,0.00,,,0.00,WUHU216HW,2013-11-20 11:08:00,
2013-11-20 05:13:00,47.8,22.6,28.98,SSE,158,14.0,15.2,37,0.00,,,0.00,WUHU216HW,2013-11-20 11:13:00,
2013-11-20 05:18:00,47.8,22.6,28.98,SE,135,0.0,14.0,37,0.00,,,0.00,WUHU216HW,2013-11-20 11:18:00,
2013-11-20 05:24:00,47.8,22.6,28.98,SE,135,6.7,14.0,37,0.00,,,0.00,WUHU216HW,2013-11-20 11:24:00,
2013-11-20 05:29:00,48.0,22.8,28.98,ESE,113,0.0,6.7,37,0.00,,,0.00,WUHU216HW,2013-11-20 11:29:00,
2013-11-20 05:34:00,47.8,23.3,28.97,SE,135,0.0,10.0,38,0.00,,,0.00,WUHU216HW,2013-11-20 11:34:00,
2013-11-20 05:39:00,47.4,24.8,28.97,SSE,158,8.7,10.0,41,0.00,,,0.00,WUHU216HW,2013-11-20 11:39:00,
2013-11-20 05:44:00,46.7,26.9,28.97,SSE,158,6.4,8.7,46,0.00,,,0.00,WUHU216HW,2013-11-20 11:44:00,
2013-11-20 05:49:00,45.8,27.1,28.97,SE,135,0.0,8.7,48,0.00,,,0.00,WUHU216HW,2013-11-20 11:49:00,
2013-11-20 05:54:00,45.1,28.0,28.98,SE,135,8.0,9.3,51,0.00,,,0.00,WUHU216HW,2013-11-20 11:54:00,
2013-11-20 05:59:00,44.9,28.3,28.97,SSE,158,4.6,10.2,52,0.00,,,0.00,WUHU216HW,2013-11-20 11:59:00,
2013-11-20 06:04:00,44.9,28.3,28.97,SSE,158,0.0,10.2,52,0.00,,,0.00,WUHU216HW,2013-11-20 12:04:00,
2013-11-20 06:10:00,44.9,28.3,28.97,ESE,113,3.8,7.3,52,0.00,,,0.00,WUHU216HW,2013-11-20 12:10:00,
2013-11-20 06:15:00,44.9,28.8,28.98,SE,135,6.9,10.7,53,0.00,,,0.00,WUHU216HW,2013-11-20 12:15:00,
2013-11-20 06:20:00,44.7,29.1,28.97,SE,135,7.6,10.7,54,0.00,,,0.00,WUHU216HW,2013-11-20 12:20:00,
2013-11-20 06:25:00,44.4,28.7,28.97,SE,135,10.0,10.0,54,0.00,,,0.00,WUHU216HW,2013-11-20 12:25:00,
2013-11-20 06:30:00,44.4,28.7,28.97,SE,135,5.3,13.6,54,0.00,,,0.00,WUHU216HW,2013-11-20 12:30:00,
2013-11-20 06:35:00,44.4,29.2,28.96,ESE,113,5.5,14.5,55,0.00,,,0.00,WUHU216HW,2013-11-20 12:35:00,
2013-11-20 06:40:00,44.2,29.0,28.97,SSE,158,11.4,14.5,55,0.00,,,0.00,WUHU216HW,2013-11-20 12:40:00,
2013-11-20 06:45:00,44.0,28.8,28.97,SE,135,7.8,13.1,55,0.00,,,0.00,WUHU216HW,2013-11-20 12:45:00,
2013-11-20 06:51:00,43.8,28.7,28.97,SSE,158,7.3,7.8,55,0.00,,,0.00,WUHU216HW,2013-11-20 12:51:00,
2013-11-20 06:56:00,43.8,29.1,28.98,SSE,158,6.2,8.2,56,0.00,,,0.00,WUHU216HW,2013-11-20 12:56:00,
2013-11-20 07:01:00,43.7,28.9,28.99,SE,135,2.0,11.8,56,0.00,,,0.00,WUHU216HW,2013-11-20 13:01:00,
2013-11-20 07:06:00,43.7,28.9,28.99,ESE,113,5.8,11.8,56,0.00,,,0.00,WUHU216HW,2013-11-20 13:06:00,
2013-11-20 07:11:00,43.5,29.2,28.99,SSE,158,10.0,10.0,57,0.00,,,0.00,WUHU216HW,2013-11-20 13:11:00,
2013-11-20 07:16:00,43.5,29.6,29.00,SE,135,0.0,10.7,58,0.00,,,0.00,WUHU216HW,2013-11-20 13:16:00,
2013-11-20 07:21:00,43.3,29.0,29.01,ESE,113,0.0,10.7,57,0.00,,,0.00,WUHU216HW,2013-11-20 13:21:00,
2013-11-20 07:26:00,43.3,29.4,29.01,East,90,0.0,0.0,58,0.00,,,0.00,WUHU216HW,2013-11-20 13:26:00,
2013-11-20 07:31:00,43.3,29.4,29.02,ENE,68,0.0,0.0,58,0.00,,,0.00,WUHU216HW,2013-11-20 13:31:00,
2013-11-20 07:36:00,43.1,29.3,29.02,SSE,158,0.0,5.3,58,0.00,,,0.00,WUHU216HW,2013-11-20 13:36:00,
2013-11-20 07:41:00,43.1,29.3,29.02,ESE,113,0.0,5.3,58,0.00,,,0.00,WUHU216HW,2013-11-20 13:41:00,
2013-11-20 07:46:00,42.9,29.1,29.02,East,90,0.0,0.0,58,0.00,,,0.00,WUHU216HW,2013-11-20 13:46:00,
2013-11-20 07:52:00,42.9,29.5,29.02,SE,135,0.0,4.4,59,0.00,,,0.00,WUHU216HW,2013-11-20 13:52:00,
2013-11-20 07:57:00,42.9,29.5,29.02,ESE,113,0.0,4.4,59,0.00,,,0.00,WUHU216HW,2013-11-20 13:57:00,
2013-11-20 08:02:00,42.9,29.5,29.02,East,90,0.0,0.0,59,0.00,,,0.00,WUHU216HW,2013-11-20 14:02:00,
2013-11-20 08:07:00,42.9,29.5,29.02,ESE,113,0.0,0.0,59,0.00,,,0.00,WUHU216HW,2013-11-20 14:07:00,
2013-11-20 08:12:00,42.9,30.0,29.02,ESE,113,4.6,4.6,60,0.00,,,0.00,WUHU216HW,2013-11-20 14:12:00,
2013-11-20 08:17:00,42.9,30.0,29.02,ESE,113,0.0,4.6,60,0.00,,,0.00,WUHU216HW,2013-11-20 14:17:00,
2013-11-20 08:22:00,42.9,30.3,29.02,ESE,113,0.0,0.0,61,0.00,,,0.00,WUHU216HW,2013-11-20 14:22:00,
2013-11-20 08:27:00,42.6,30.4,29.02,ESE,113,0.0,0.0,62,0.00,,,0.00,WUHU216HW,2013-11-20 14:27:00,
2013-11-20 08:32:00,42.4,30.6,29.02,East,90,0.0,0.0,63,0.00,,,0.00,WUHU216HW,2013-11-20 14:32:00,
2013-11-20 08:38:00,42.0,31.1,29.02,ESE,113,0.0,0.0,65,0.00,,,0.00,WUHU216HW,2013-11-20 14:38:00,
2013-11-20 08:43:00,41.9,31.3,29.03,East,90,0.0,0.0,66,0.00,,,0.00,WUHU216HW,2013-11-20 14:43:00,
2013-11-20 08:48:00,41.7,31.1,29.03,East,90,0.0,0.0,66,0.00,,,0.00,WUHU216HW,2013-11-20 14:48:00,
2013-11-20 08:53:00,41.7,31.5,29.04,East,90,0.0,0.0,67,0.00,,,0.00,WUHU216HW,2013-11-20 14:53:00,
2013-11-20 08:58:00,41.5,31.3,29.03,East,90,0.0,0.0,67,0.00,,,0.00,WUHU216HW,2013-11-20 14:58:00,
2013-11-20 09:03:00,41.3,31.5,29.04,ENE,68,0.0,0.0,68,0.00,,,0.00,WUHU216HW,2013-11-20 15:03:00,
2013-11-20 09:08:00,41.3,31.9,29.03,ENE,68,0.0,0.0,69,0.00,,,0.00,WUHU216HW,2013-11-20 15:08:00,
2013-11-20 09:13:00,41.3,32.3,29.03,ENE,68,0.0,0.0,70,0.00,,,0.00,WUHU216HW,2013-11-20 15:13:00,
2013-11-20 09:18:00,41.1,32.5,29.04,ENE,68,0.0,0.0,71,0.00,,,0.00,WUHU216HW,2013-11-20 15:18:00,
2013-11-20 09:23:00,41.1,32.1,29.03,ENE,68,0.0,0.0,70,0.00,,,0.00,WUHU216HW,2013-11-20 15:23:00,
2013-11-20 09:28:00,40.8,32.4,29.03,ENE,68,0.0,0.0,72,0.00,,,0.00,WUHU216HW,2013-11-20 15:28:00,
2013-11-20 09:33:00,40.6,32.6,29.03,ENE,68,0.0,0.0,73,0.00,,,0.00,WUHU216HW,2013-11-20 15:33:00,
2013-11-20 09:38:00,40.6,32.6,29.03,ENE,68,0.0,0.0,73,0.00,,,0.00,WUHU216HW,2013-11-20 15:38:00,
2013-11-20 09:43:00,40.2,32.5,29.03,ENE,68,0.0,0.0,74,0.00,,,0.00,WUHU216HW,2013-11-20 15:43:00,
2013-11-20 09:49:00,40.6,33.6,29.03,East,90,0.0,0.0,76,0.00,,,0.00,WUHU216HW,2013-11-20 15:49:00,
2013-11-20 09:54:00,40.6,33.9,29.03,East,90,0.0,0.0,77,0.00,,,0.00,WUHU216HW,2013-11-20 15:54:00,
2013-11-20 09:58:00,41.0,34.2,29.03,ENE,68,0.0,0.0,77,0.00,,,0.00,WUHU216HW,2013-11-20 15:58:00,
2013-11-20 10:04:00,41.1,34.7,29.02,ENE,68,0.0,0.0,78,0.00,,,0.00,WUHU216HW,2013-11-20 16:04:00,
2013-11-20 10:09:00,41.5,35.1,29.02,ENE,68,0.0,0.0,78,0.00,,,0.00,WUHU216HW,2013-11-20 16:09:00,
2013-11-20 10:14:00,41.5,35.1,29.03,ENE,68,2.4,2.4,78,0.00,,,0.00,WUHU216HW,2013-11-20 16:14:00,
2013-11-20 10:19:00,41.5,35.1,29.03,ENE,68,1.5,2.4,78,0.00,,,0.00,WUHU216HW,2013-11-20 16:19:00,
2013-11-20 10:24:00,41.3,34.9,29.03,ENE,68,0.0,2.4,78,0.00,,,0.00,WUHU216HW,2013-11-20 16:24:00,
2013-11-20 10:29:00,41.3,35.2,29.03,East,90,0.0,0.0,79,0.00,,,0.00,WUHU216HW,2013-11-20 16:29:00,
2013-11-20 10:34:00,41.3,35.2,29.03,ESE,113,0.0,0.0,79,0.00,,,0.00,WUHU216HW,2013-11-20 16:34:00,
2013-11-20 10:39:00,41.5,35.1,29.03,East,90,5.3,5.3,78,0.00,,,0.00,WUHU216HW,2013-11-20 16:39:00,
2013-11-20 10:44:00,42.0,35.6,29.02,ESE,113,0.0,5.3,78,0.00,,,0.00,WUHU216HW,2013-11-20 16:44:00,
2013-11-20 10:49:00,42.4,36.0,29.02,SE,135,0.0,6.2,78,0.00,,,0.00,WUHU216HW,2013-11-20 16:49:00,
2013-11-20 10:54:00,42.6,35.8,29.02,East,90,0.0,6.2,77,0.00,,,0.00,WUHU216HW,2013-11-20 16:54:00,
2013-11-20 10:59:00,42.9,35.9,29.02,East,90,0.0,0.0,76,0.00,,,0.00,WUHU216HW,2013-11-20 16:59:00,
2013-11-20 11:04:00,43.5,36.4,29.01,ESE,113,5.5,5.5,76,0.00,,,0.00,WUHU216HW,2013-11-20 17:04:00,
2013-11-20 11:09:00,43.8,36.4,29.01,ENE,68,6.9,6.9,75,0.00,,,0.00,WUHU216HW,2013-11-20 17:09:00,
2013-11-20 11:14:00,44.2,36.4,29.00,SE,135,4.2,6.9,74,0.00,,,0.00,WUHU216HW,2013-11-20 17:14:00,
2013-11-20 11:19:00,44.2,36.1,29.00,SE,135,0.0,6.9,73,0.00,,,0.00,WUHU216HW,2013-11-20 17:19:00,
2013-11-20 11:24:00,44.4,36.2,29.00,ESE,113,0.0,6.7,73,0.00,,,0.00,WUHU216HW,2013-11-20 17:24:00,
2013-11-20 11:30:00,44.4,35.9,29.01,ESE,113,0.0,0.0,72,0.00,,,0.00,WUHU216HW,2013-11-20 17:30:00,
2013-11-20 11:35:00,44.4,35.9,29.01,ESE,113,5.5,6.7,72,0.00,,,0.00,WUHU216HW,2013-11-20 17:35:00,
2013-11-20 11:40:00,44.4,35.9,29.00,ESE,113,0.0,6.7,72,0.00,,,0.00,WUHU216HW,2013-11-20 17:40:00,
2013-11-20 11:45:00,44.4,35.5,28.99,SE,135,0.0,5.5,71,0.00,,,0.00,WUHU216HW,2013-11-20 17:45:00,
2013-11-20 11:50:00,44.4,35.2,28.99,SE,135,0.0,3.8,70,0.00,,,0.00,WUHU216HW,2013-11-20 17:50:00,
2013-11-20 11:55:00,44.4,34.8,28.99,SSE,158,0.0,3.8,69,0.00,,,0.00,WUHU216HW,2013-11-20 17:55:00,
2013-11-20 12:00:00,44.4,34.8,28.99,SSE,158,0.0,5.5,69,0.00,,,0.00,WUHU216HW,2013-11-20 18:00:00,
2013-11-20 12:05:00,44.4,34.8,28.99,SSE,158,0.0,5.5,69,0.00,,,0.00,WUHU216HW,2013-11-20 18:05:00,
2013-11-20 12:10:00,44.6,35.0,28.99,SE,135,7.1,7.1,69,0.00,,,0.00,WUHU216HW,2013-11-20 18:10:00,
2013-11-20 12:15:00,44.6,34.6,28.99,SSE,158,0.0,8.5,68,0.00,,,0.00,WUHU216HW,2013-11-20 18:15:00,
2013-11-20 12:20:00,44.7,34.8,28.98,SE,135,5.1,8.5,68,0.00,,,0.00,WUHU216HW,2013-11-20 18:20:00,
2013-11-20 12:26:00,44.9,34.6,28.98,ESE,113,9.3,9.3,67,0.00,,,0.00,WUHU216HW,2013-11-20 18:26:00,
2013-11-20 12:31:00,44.9,33.8,28.98,SE,135,6.9,9.3,65,0.00,,,0.00,WUHU216HW,2013-11-20 18:31:00,
2013-11-20 12:36:00,45.1,34.4,28.98,SE,135,6.9,9.3,66,0.00,,,0.00,WUHU216HW,2013-11-20 18:36:00,
2013-11-20 12:41:00,45.1,34.8,28.97,SE,135,9.8,9.8,67,0.00,,,0.00,WUHU216HW,2013-11-20 18:41:00,
2013-11-20 12:46:00,45.1,35.1,28.97,SE,135,0.0,9.8,68,0.00,,,0.00,WUHU216HW,2013-11-20 18:46:00,
2013-11-20 12:51:00,45.3,35.7,28.97,SE,135,3.5,9.8,69,0.00,,,0.00,WUHU216HW,2013-11-20 18:51:00,
2013-11-20 12:56:00,45.5,35.9,28.97,ESE,113,0.0,7.3,69,0.00,,,0.00,WUHU216HW,2013-11-20 18:56:00,
2013-11-20 13:01:00,45.5,35.5,28.96,SE,135,8.7,8.7,68,0.00,,,0.00,WUHU216HW,2013-11-20 19:01:00,
2013-11-20 13:06:00,45.6,35.7,28.96,SE,135,3.8,9.6,68,0.00,,,0.00,WUHU216HW,2013-11-20 19:06:00,
2013-11-20 13:11:00,45.6,35.7,28.96,South,180,8.5,9.6,68,0.00,,,0.00,WUHU216HW,2013-11-20 19:11:00,
2013-11-20 13:16:00,46.0,36.4,28.96,SSE,158,8.5,8.5,69,0.00,,,0.00,WUHU216HW,2013-11-20 19:16:00,
2013-11-20 13:21:00,46.2,36.6,28.96,ESE,113,8.2,8.5,69,0.00,,,0.00,WUHU216HW,2013-11-20 19:21:00,
2013-11-20 13:26:00,46.5,36.9,28.95,SE,135,6.2,8.2,69,0.00,,,0.00,WUHU216HW,2013-11-20 19:26:00,
2013-11-20 13:31:00,46.9,37.3,28.95,ESE,113,6.2,8.2,69,0.00,,,0.00,WUHU216HW,2013-11-20 19:31:00,
2013-11-20 13:36:00,47.4,37.0,28.95,SE,135,8.9,8.9,67,0.00,,,0.00,WUHU216HW,2013-11-20 19:36:00,
2013-11-20 13:41:00,47.8,37.3,28.95,ESE,113,7.1,8.9,67,0.00,,,0.00,WUHU216HW,2013-11-20 19:41:00,
2013-11-20 13:46:00,48.0,37.5,28.95,SE,135,6.7,8.9,67,0.00,,,0.00,WUHU216HW,2013-11-20 19:46:00,
2013-11-20 13:52:00,48.0,37.5,28.94,ESE,113,0.0,7.1,67,0.00,,,0.00,WUHU216HW,2013-11-20 19:52:00,
2013-11-20 13:57:00,48.0,37.1,28.94,SE,135,0.8,6.9,66,0.00,,,0.00,WUHU216HW,2013-11-20 19:57:00,
2013-11-20 14:02:00,48.3,37.1,28.94,SE,135,5.3,5.3,65,0.00,,,0.00,WUHU216HW,2013-11-20 20:02:00,
2013-11-20 14:07:00,48.2,36.9,28.94,SE,135,0.0,7.1,65,0.00,,,0.00,WUHU216HW,2013-11-20 20:07:00,
2013-11-20 14:12:00,48.2,36.9,28.94,SE,135,0.0,7.1,65,0.00,,,0.00,WUHU216HW,2013-11-20 20:12:00,
2013-11-20 14:17:00,48.0,36.3,28.94,ESE,113,0.0,1.7,64,0.00,,,0.00,WUHU216HW,2013-11-20 20:17:00,
2013-11-20 14:22:00,48.3,36.7,28.94,SE,135,0.0,7.8,64,0.00,,,0.00,WUHU216HW,2013-11-20 20:22:00,
2013-11-20 14:27:00,48.3,36.7,28.94,SE,135,7.1,7.8,64,0.00,,,0.00,WUHU216HW,2013-11-20 20:27:00,
2013-11-20 14:32:00,48.5,36.5,28.94,ESE,113,6.4,7.1,63,0.00,,,0.00,WUHU216HW,2013-11-20 20:32:00,
2013-11-20 14:37:00,48.7,36.6,28.94,SE,135,0.0,8.9,63,0.00,,,0.00,WUHU216HW,2013-11-20 20:37:00,
2013-11-20 14:42:00,48.9,36.4,28.93,East,90,3.8,8.9,62,0.00,,,0.00,WUHU216HW,2013-11-20 20:42:00,
2013-11-20 14:47:00,48.7,36.3,28.93,ESE,113,0.0,3.8,62,0.00,,,0.00,WUHU216HW,2013-11-20 20:47:00,
2013-11-20 14:52:00,48.7,36.3,28.93,ESE,113,0.8,4.6,62,0.00,,,0.00,WUHU216HW,2013-11-20 20:52:00,
2013-11-20 14:57:00,48.9,36.4,28.93,SE,135,0.0,4.6,63,0.00,,,0.00,WUHU216HW,2013-11-20 20:57:00,
2013-11-20 15:02:00,48.7,36.3,28.93,ESE,113,0.0,1.1,62,0.00,,,0.00,WUHU216HW,2013-11-20 21:02:00,
2013-11-20 15:07:00,48.7,36.6,28.93,SE,135,3.5,4.4,63,0.00,,,0.00,WUHU216HW,2013-11-20 21:07:00,
2013-11-20 15:12:00,49.1,36.6,28.93,ESE,113,3.5,5.1,62,0.00,,,0.00,WUHU216HW,2013-11-20 21:12:00,
2013-11-20 15:17:00,49.2,36.4,28.93,SE,135,0.0,5.8,61,0.00,,,0.00,WUHU216HW,2013-11-20 21:17:00,
2013-11-20 15:22:00,49.2,36.4,28.93,SE,135,0.0,5.8,61,0.00,,,0.00,WUHU216HW,2013-11-20 21:22:00,
2013-11-20 15:27:00,49.6,36.7,28.93,SE,135,0.0,3.8,62,0.00,,,0.00,WUHU216HW,2013-11-20 21:27:00,
2013-11-20 15:32:00,49.6,36.7,28.93,East,90,6.9,6.9,61,0.00,,,0.00,WUHU216HW,2013-11-20 21:32:00,
2013-11-20 15:37:00,49.2,36.4,28.94,ESE,113,0.0,6.9,61,0.00,,,0.00,WUHU216HW,2013-11-20 21:37:00,
2013-11-20 15:42:00,49.1,36.2,28.94,ESE,113,5.1,6.9,61,0.00,,,0.00,WUHU216HW,2013-11-20 21:42:00,
2013-11-20 15:47:00,48.9,36.4,28.94,ESE,113,5.3,8.5,62,0.00,,,0.00,WUHU216HW,2013-11-20 21:47:00,
2013-11-20 15:52:00,48.7,36.3,28.93,ESE,113,0.0,8.5,62,0.00,,,0.00,WUHU216HW,2013-11-20 21:52:00,
2013-11-20 15:57:00,48.3,35.9,28.93,SE,135,0.0,5.3,62,0.00,,,0.00,WUHU216HW,2013-11-20 21:57:00,
2013-11-20 16:02:00,48.0,36.0,28.94,ESE,113,0.0,3.3,63,0.00,,,0.00,WUHU216HW,2013-11-20 22:02:00,
2013-11-20 16:07:00,48.0,36.0,28.94,ESE,113,0.0,0.0,63,0.00,,,0.00,WUHU216HW,2013-11-20 22:07:00,
2013-11-20 16:12:00,47.8,35.8,28.94,ESE,113,0.0,5.1,63,0.00,,,0.00,WUHU216HW,2013-11-20 22:12:00,
2013-11-20 16:17:00,47.4,35.8,28.94,SE,135,0.0,5.1,64,0.00,,,0.00,WUHU216HW,2013-11-20 22:17:00,
2013-11-20 16:22:00,47.3,35.7,28.94,ESE,113,0.0,0.0,64,0.00,,,0.00,WUHU216HW,2013-11-20 22:22:00,
2013-11-20 16:27:00,47.1,35.9,28.94,ESE,113,0.0,0.0,65,0.00,,,0.00,WUHU216HW,2013-11-20 22:27:00,
2013-11-20 16:33:00,46.7,35.9,28.94,ESE,113,0.0,0.0,66,0.00,,,0.00,WUHU216HW,2013-11-20 22:33:00,
2013-11-20 16:38:00,46.5,35.7,28.94,ESE,113,0.0,0.0,66,0.00,,,0.00,WUHU216HW,2013-11-20 22:38:00,
2013-11-20 16:43:00,46.0,35.6,28.95,ESE,113,0.0,0.0,67,0.00,,,0.00,WUHU216HW,2013-11-20 22:43:00,
2013-11-20 16:48:00,45.6,35.3,28.95,ESE,113,0.0,0.0,67,0.00,,,0.00,WUHU216HW,2013-11-20 22:48:00,
2013-11-20 16:53:00,45.5,35.5,28.95,ESE,113,0.0,0.0,68,0.00,,,0.00,WUHU216HW,2013-11-20 22:53:00,
2013-11-20 16:58:00,44.9,35.0,28.95,ESE,113,0.0,0.0,68,0.00,,,0.00,WUHU216HW,2013-11-20 22:58:00,
2013-11-20 17:03:00,44.6,34.6,28.95,ESE,113,0.0,0.0,68,0.00,,,0.00,WUHU216HW,2013-11-20 23:03:00,
2013-11-20 17:08:00,44.2,33.9,28.95,ESE,113,0.0,0.0,67,0.00,,,0.00,WUHU216HW,2013-11-20 23:08:00,
2013-11-20 17:13:00,43.3,33.4,28.95,ESE,113,0.0,0.0,68,0.00,,,0.00,WUHU216HW,2013-11-20 23:13:00,
2013-11-20 17:18:00,42.9,33.5,28.96,ESE,113,0.0,0.0,69,0.00,,,0.00,WUHU216HW,2013-11-20 23:18:00,
2013-11-20 17:23:00,42.6,33.6,28.96,ESE,113,0.0,0.0,70,0.00,,,0.00,WUHU216HW,2013-11-20 23:23:00,
2013-11-20 17:28:00,42.6,34.2,28.96,ESE,113,0.0,0.0,72,0.00,,,0.00,WUHU216HW,2013-11-20 23:28:00,
2013-11-20 17:33:00,42.6,34.2,28.96,ESE,113,0.0,0.0,72,0.00,,,0.00,WUHU216HW,2013-11-20 23:33:00,
2013-11-20 17:38:00,42.6,34.2,28.97,ESE,113,0.0,0.0,72,0.00,,,0.00,WUHU216HW,2013-11-20 23:38:00,
2013-11-20 17:43:00,42.9,34.6,28.96,ESE,113,0.0,0.0,72,0.00,,,0.00,WUHU216HW,2013-11-20 23:43:00,
2013-11-20 17:48:00,43.1,34.7,28.97,ESE,113,0.0,0.0,72,0.00,,,0.00,WUHU216HW,2013-11-20 23:48:00,
2013-11-20 17:53:00,43.3,34.9,28.96,ESE,113,0.0,0.0,72,0.00,,,0.00,WUHU216HW,2013-11-20 23:53:00,
2013-11-20 17:58:00,43.5,35.0,28.97,ESE,113,0.0,0.0,72,0.00,,,0.00,WUHU216HW,2013-11-20 23:58:00,
2013-11-20 18:03:00,43.7,35.2,28.97,ESE,113,0.0,0.0,72,0.00,,,0.00,WUHU216HW,2013-11-21 00:03:00,
2013-11-20 18:08:00,43.7,35.2,28.97,ESE,113,0.0,0.0,72,0.00,,,0.00,WUHU216HW,2013-11-21 00:08:00,
2013-11-20 18:13:00,43.7,35.2,28.97,ESE,113,0.0,0.0,72,0.00,,,0.00,WUHU216HW,2013-11-21 00:13:00,
2013-11-20 18:18:00,43.5,35.0,28.97,ESE,113,0.0,0.0,72,0.00,,,0.00,WUHU216HW,2013-11-21 00:18:00,
2013-11-20 18:23:00,43.5,35.0,28.97,ESE,113,0.0,0.0,72,0.00,,,0.00,WUHU216HW,2013-11-21 00:23:00,
2013-11-20 18:28:00,43.3,34.9,28.97,ESE,113,0.0,0.0,72,0.00,,,0.00,WUHU216HW,2013-11-21 00:28:00,
2013-11-20 18:33:00,43.1,34.7,28.97,ESE,113,0.0,0.0,72,0.00,,,0.00,WUHU216HW,2013-11-21 00:33:00,
2013-11-20 18:38:00,42.9,34.6,28.97,ESE,113,0.0,0.0,72,0.00,,,0.00,WUHU216HW,2013-11-21 00:38:00,
2013-11-20 18:43:00,42.9,34.9,28.98,ESE,113,0.0,0.0,73,0.00,,,0.00,WUHU216HW,2013-11-21 00:43:00,
2013-11-20 18:48:00,42.8,34.7,28.97,ESE,113,0.0,0.0,73,0.00,,,0.00,WUHU216HW,2013-11-21 00:48:00,
2013-11-20 18:53:00,42.9,35.2,28.98,ESE,113,0.0,0.0,74,0.00,,,0.00,WUHU216HW,2013-11-21 00:53:00,
2013-11-20 18:58:00,43.1,35.4,28.97,ESE,113,0.0,0.0,74,0.00,,,0.00,WUHU216HW,2013-11-21 00:58:00,
2013-11-20 19:03:00,43.1,35.4,28.97,ESE,113,0.0,0.0,74,0.00,,,0.00,WUHU216HW,2013-11-21 01:03:00,
2013-11-20 19:08:00,43.3,35.9,28.97,ESE,113,0.0,0.0,75,0.00,,,0.00,WUHU216HW,2013-11-21 01:08:00,
2013-11-20 19:13:00,43.5,36.1,28.97,ESE,113,0.0,0.0,75,0.00,,,0.00,WUHU216HW,2013-11-21 01:13:00,
2013-11-20 19:18:00,43.7,35.9,28.97,ESE,113,0.0,0.0,74,0.00,,,0.00,WUHU216HW,2013-11-21 01:18:00,
2013-11-20 19:23:00,43.7,35.9,28.97,ESE,113,0.0,0.0,74,0.00,,,0.00,WUHU216HW,2013-11-21 01:23:00,
2013-11-20 19:28:00,43.8,36.4,28.97,ESE,113,0.0,0.0,75,0.00,,,0.00,WUHU216HW,2013-11-21 01:28:00,
2013-11-20 19:33:00,44.0,36.2,28.97,ESE,113,0.0,0.0,74,0.00,,,0.00,WUHU216HW,2013-11-21 01:33:00,
2013-11-20 19:38:00,44.0,36.6,28.98,ESE,113,0.0,0.0,75,0.00,,,0.00,WUHU216HW,2013-11-21 01:38:00,
2013-11-20 19:43:00,44.2,36.7,28.98,ESE,113,0.0,0.0,75,0.00,,,0.00,WUHU216HW,2013-11-21 01:43:00,
2013-11-20 19:48:00,44.2,36.7,28.98,ESE,113,0.0,0.0,75,0.00,,,0.00,WUHU216HW,2013-11-21 01:48:00,
2013-11-20 19:53:00,44.4,36.9,28.98,ESE,113,0.0,0.0,75,0.00,,,0.00,WUHU216HW,2013-11-21 01:53:00,
2013-11-20 19:58:00,44.4,36.9,28.98,ESE,113,0.0,0.0,75,0.00,,,0.00,WUHU216HW,2013-11-21 01:58:00,
2013-11-20 20:03:00,44.4,36.9,28.98,ESE,113,0.0,0.0,75,0.00,,,0.00,WUHU216HW,2013-11-21 02:03:00,
2013-11-20 20:08:00,44.4,36.9,28.98,ESE,113,0.0,0.0,75,0.00,,,0.00,WUHU216HW,2013-11-21 02:08:00,
2013-11-20 20:13:00,44.6,37.1,28.99,ESE,113,0.0,0.0,75,0.00,,,0.00,WUHU216HW,2013-11-21 02:13:00,
2013-11-20 20:18:00,44.7,37.3,28.99,ESE,113,0.0,0.0,75,0.00,,,0.00,WUHU216HW,2013-11-21 02:18:00,
2013-11-20 20:23:00,44.9,37.4,28.99,ESE,113,0.0,0.0,75,0.00,,,0.00,WUHU216HW,2013-11-21 02:23:00,
2013-11-20 20:28:00,44.9,37.4,28.98,ESE,113,0.0,0.0,75,0.00,,,0.00,WUHU216HW,2013-11-21 02:28:00,
2013-11-20 20:33:00,45.1,37.6,28.98,ESE,113,0.0,0.0,75,0.00,,,0.00,WUHU216HW,2013-11-21 02:33:00,
2013-11-20 20:38:00,45.1,37.6,28.98,ESE,113,0.0,0.0,75,0.00,,,0.00,WUHU216HW,2013-11-21 02:38:00,
2013-11-20 20:43:00,45.3,37.8,28.98,ESE,113,0.0,0.0,75,0.00,,,0.00,WUHU216HW,2013-11-21 02:43:00,
2013-11-20 20:48:00,45.3,37.8,28.99,ESE,113,0.0,0.0,75,0.00,,,0.00,WUHU216HW,2013-11-21 02:48:00,
2013-11-20 20:53:00,45.5,38.0,28.99,ESE,113,0.0,0.0,75,0.00,,,0.00,WUHU216HW,2013-11-21 02:53:00,
2013-11-20 20:58:00,45.6,37.8,28.99,ESE,113,0.0,0.0,74,0.00,,,0.00,WUHU216HW,2013-11-21 02:58:00,
2013-11-20 21:03:00,45.6,37.8,28.99,ESE,113,0.0,0.0,74,0.00,,,0.00,WUHU216HW,2013-11-21 03:03:00,
2013-11-20 21:08:00,46.0,38.0,28.99,ESE,113,0.0,0.0,74,0.00,,,0.00,WUHU216HW,2013-11-21 03:08:00,
2013-11-20 21:13:00,46.0,38.2,28.99,ESE,113,0.0,0.0,74,0.00,,,0.00,WUHU216HW,2013-11-21 03:13:00,
2013-11-20 21:18:00,46.2,38.4,28.98,ESE,113,0.0,0.0,74,0.00,,,0.00,WUHU216HW,2013-11-21 03:18:00,
2013-11-20 21:23:00,46.2,38.0,28.99,ESE,113,0.0,0.0,73,0.00,,,0.00,WUHU216HW,2013-11-21 03:23:00,
2013-11-20 21:28:00,46.4,38.2,28.99,ESE,113,0.0,0.0,73,0.00,,,0.00,WUHU216HW,2013-11-21 03:28:00,
2013-11-20 21:33:00,46.5,38.4,28.99,ESE,113,0.0,0.0,73,0.00,,,0.00,WUHU216HW,2013-11-21 03:33:00,
2013-11-20 21:38:00,46.9,38.3,28.99,ESE,113,0.0,0.0,72,0.00,,,0.00,WUHU216HW,2013-11-21 03:38:00,
2013-11-20 21:43:00,46.9,38.3,28.99,ESE,113,0.0,0.0,72,0.00,,,0.00,WUHU216HW,2013-11-21 03:43:00,
2013-11-20 21:48:00,47.1,38.5,28.99,ESE,113,0.0,0.0,72,0.00,,,0.00,WUHU216HW,2013-11-21 03:48:00,
2013-11-20 21:53:00,47.1,38.5,28.99,ESE,113,0.0,0.0,72,0.00,,,0.00,WUHU216HW,2013-11-21 03:53:00,
2013-11-20 21:58:00,47.1,38.2,28.99,ESE,113,0.0,0.0,71,0.00,,,0.00,WUHU216HW,2013-11-21 03:58:00,
2013-11-20 22:03:00,47.3,38.3,29.00,ESE,113,0.0,0.0,71,0.00,,,0.00,WUHU216HW,2013-11-21 04:03:00,
2013-11-20 22:08:00,47.3,38.3,28.99,ESE,113,0.0,0.0,71,0.00,,,0.00,WUHU216HW,2013-11-21 04:08:00,
2013-11-20 22:13:00,47.3,38.3,28.99,ESE,113,0.0,0.0,71,0.00,,,0.00,WUHU216HW,2013-11-21 04:13:00,
2013-11-20 22:18:00,47.4,38.5,28.99,ESE,113,0.0,0.0,71,0.00,,,0.00,WUHU216HW,2013-11-21 04:18:00,
2013-11-20 22:23:00,47.4,38.5,29.00,ESE,113,0.0,0.0,71,0.00,,,0.00,WUHU216HW,2013-11-21 04:23:00,
2013-11-20 22:28:00,47.6,38.3,28.99,ESE,113,0.0,0.0,70,0.00,,,0.00,WUHU216HW,2013-11-21 04:28:00,
2013-11-20 22:33:00,47.8,38.5,28.99,ESE,113,0.0,0.0,70,0.00,,,0.00,WUHU216HW,2013-11-21 04:33:00,
2013-11-20 22:38:00,47.8,38.5,28.99,ESE,113,0.0,0.0,70,0.00,,,0.00,WUHU216HW,2013-11-21 04:38:00,
2013-11-20 22:43:00,47.8,38.5,28.99,ESE,113,0.0,0.0,70,0.00,,,0.00,WUHU216HW,2013-11-21 04:43:00,
2013-11-20 22:48:00,47.4,38.1,28.99,ESE,113,0.0,0.0,70,0.00,,,0.00,WUHU216HW,2013-11-21 04:48:00,
2013-11-20 22:53:00,47.3,37.6,28.99,ESE,113,0.0,0.0,69,0.00,,,0.00,WUHU216HW,2013-11-21 04:53:00,
2013-11-20 22:58:00,47.1,37.8,29.00,ESE,113,0.0,0.0,70,0.00,,,0.00,WUHU216HW,2013-11-21 04:58:00,
2013-11-20 23:01:00,47.1,37.8,29.00,ESE,113,0.0,0.0,70,0.00,,,0.00,WUHU216HW,2013-11-21 05:01:00,
2013-11-20 23:02:00,47.1,38.2,29.00,ESE,113,0.0,0.0,71,0.00,,,0.00,WUHU216HW,2013-11-21 05:02:00,
2013-11-20 23:07:00,46.9,38.0,29.00,ESE,113,0.0,0.0,71,0.00,,,0.00,WUHU216HW,2013-11-21 05:07:00,
2013-11-20 23:12:00,46.9,38.0,29.01,ESE,113,0.0,0.0,71,0.00,,,0.00,WUHU216HW,2013-11-21 05:12:00,
2013-11-20 23:17:00,46.9,38.0,29.01,ESE,113,0.0,0.0,71,0.00,,,0.00,WUHU216HW,2013-11-21 05:17:00,
2013-11-20 23:22:00,46.9,38.0,29.01,ESE,113,0.0,0.0,71,0.00,,,0.00,WUHU216HW,2013-11-21 05:22:00,
2013-11-20 23:27:00,46.9,38.3,29.01,ESE,113,0.0,0.0,72,0.00,,,0.00,WUHU216HW,2013-11-21 05:27:00,
2013-11-20 23:32:00,47.1,38.5,29.01,ESE,113,0.0,0.0,72,0.00,,,0.00,WUHU216HW,2013-11-21 05:32:00,
2013-11-20 23:37:00,47.1,38.5,29.01,ESE,113,0.0,0.0,72,0.00,,,0.00,WUHU216HW,2013-11-21 05:37:00,
2013-11-20 23:42:00,47.1,38.5,29.01,ESE,113,0.0,0.0,72,0.00,,,0.00,WUHU216HW,2013-11-21 05:42:00,
2013-11-20 23:47:00,47.1,38.5,29.02,ESE,113,0.0,0.0,72,0.00,,,0.00,WUHU216HW,2013-11-21 05:47:00,
2013-11-20 23:52:00,47.1,38.2,29.02,ESE,113,0.0,0.0,71,0.00,,,0.00,WUHU216HW,2013-11-21 05:52:00,
2013-11-20 23:57:00,47.1,38.2,29.02,ESE,113,0.0,0.0,71,0.00,,,0.00,WUHU216HW,2013-11-21 05:57:00,